• Join FlightAware (Why Join?)
  • Login
  • US Flag 
02:11PM EST


 

Airport Tracker/Info


-or-


 

Live Flight TrackerFlight Track Log ✈ EJA831 ✈ 26-May-2013 ✈ KSLN - KBJC

Flight Track Log - Related Links

Times and Time Zones

All times are in EDT time to prevent confusion due to time zone crossing. See the EJA831 flight status page for this flight to view local times or setup timezone preferences in your user account.

Time Position Orientation Groundspeed Altitude Reporting Facility
EDT Latitude Longitude Course Direction KTS MPH feet Rate Location/Type
02:31PM 38.7547 -97.7181 250° West 201 231 4,100  Level Kansas City Center
02:32PM 38.7472 -97.8006 263° West 239 275 5,800 1,800 Climbing Kansas City Center
02:33PM 38.7369 -97.9008 263° West 264 304 7,800 2,220 Climbing Kansas City Center
02:34PM 38.7278 -98.0003 263° West 281 323 10,400 2,460 Climbing Kansas City Center
02:35PM 38.6986 -98.5128 262° West  Level FlightAware Approximate
02:35PM 38.7189 -98.1025 264° West 289 333 12,900  Level Kansas City Center
02:36PM 38.7086 -98.2108 263° West 304 350 15,300 2,340 Climbing Kansas City Center
02:37PM 38.6983 -98.3186 263° West 307 353 17,800 2,340 Climbing Kansas City Center
02:38PM 38.6878 -98.4303 263° West 316 364 20,200 2,040 Climbing Kansas City Center
02:39PM 38.6769 -98.5439 263° West 322 371 22,100 1,800 Climbing Kansas City Center
02:40PM 38.6658 -98.6625 263° West 335 386 23,900 1,800 Climbing Kansas City Center
02:41PM 38.6511 -98.8086 263° West 346 398 25,900 1,740 Climbing Kansas City Center
02:42PM 38.6392 -98.9317 263° West 350 403 27,500 1,440 Climbing Kansas City Center
02:43PM 38.6269 -99.0589 263° West 357 411 28,900 1,560 Climbing Kansas City Center
02:44PM 38.6136 -99.1847 262° West 357 411 30,800 1,500 Climbing Kansas City Center
02:45PM 38.6008 -99.3072 262° West 352 405 32,000 540 Climbing Kansas City Center
02:46PM 38.5861 -99.4389 262° West 368 423 32,000  Level Kansas City Center
02:47PM 38.5706 -99.5942 263° West 389 448 32,000  Level Kansas City Center
02:48PM 38.5567 -99.7297 263° West 398 458 32,000  Level Kansas City Center
02:49PM 38.5389 -99.8872 262° West 402 463 32,000  Level Kansas City Center
02:50PM 38.5236 -100.0206 262° West 399 459 32,000  Level Kansas City Center
02:51PM 38.5072 -100.1728 262° West 391 450 32,000  Level Kansas City Center
02:52PM 38.4925 -100.3019 262° West 388 447 32,000  Level Kansas City Center
02:53PM 38.4753 -100.4531 262° West 386 444 32,000  Level Kansas City Center
02:54PM 38.4697 -100.4944 260° West 386 444 32,000  Level Denver Center
02:55PM 38.4522 -100.6419 261° West 381 438 32,000  Level Denver Center
02:56PM 38.4458 -100.7072 263° West 381 438 32,000  Level Kansas City Center
02:57PM 38.4286 -100.8539 262° West 378 435 32,000  Level Kansas City Center
02:57PM 38.4197 -100.9178 260° West 381 438 32,000  Level Denver Center
02:58PM 38.4061 -101.0458 262° West 382 440 32,000  Level Denver Center
02:59PM 38.3894 -101.1700 260° West 374 430 32,000  Level Denver Center
03:00PM 38.3719 -101.3217 262° West 388 447 32,000  Level Denver Center
03:01PM 38.3553 -101.4531 261° West 393 452 32,000  Level Denver Center
03:02PM 38.3367 -101.6061 261° West 393 452 32,000  Level Denver Center
03:03PM 38.3394 -101.7406 272° West 400 460 32,000 -120 Level Denver Center
03:04PM 38.3836 -101.8875 291° West 401 461 31,800 -600 Descending Denver Center
03:05PM 38.4222 -102.0142 291° West 401 461 30,800 -900 Descending Denver Center
03:06PM 38.4592 -102.1403 291° West 399 459 30,000 -420 Descending Denver Center
03:07PM 38.5025 -102.2814 291° West 389 448 30,000  Level Denver Center
03:08PM 38.5383 -102.4025 291° West 384 442 30,000  Level Denver Center
03:09PM 38.5817 -102.5489 291° West 390 449 30,000  Level Denver Center
03:11PM 38.6197 -102.6761 291° West 396 456 30,000  Level Denver Center
03:12PM 38.6686 -102.8469 290° West 400 460 30,000  Level Denver Center
03:13PM 38.7058 -102.9756 290° West 402 463 30,000  Level Denver Center
03:14PM 38.7492 -103.1231 291° West 401 461 30,000 -360 Level Denver Center
03:15PM 38.7844 -103.2486 290° West 398 458 29,300 -1,320 Descending Denver Center
03:16PM 38.8217 -103.3764 291° West 397 457 27,300 -2,160 Descending Denver Center
03:17PM 38.8647 -103.5256 290° West 399 459 24,900 -2,160 Descending Denver Center
03:18PM 38.8989 -103.6511 289° West 394 453 22,900 -2,100 Descending Denver Center
03:19PM 38.9403 -103.7958 290° West 389 448 20,700 -2,100 Descending Denver Center
03:20PM 38.9744 -103.9169 290° West 383 441 18,700 -2,040 Descending Denver Center
03:21PM 39.0122 -104.0508 290° West 372 428 16,600 -1,320 Descending Denver Center
03:22PM 39.0389 -104.1597 288° West 356 410 16,000 -300 Descending Denver Center
03:23PM 39.0728 -104.3056 287° West 341 392 16,000 -480 Level Denver Center
03:24PM 39.0981 -104.4175 286° West 339 390 15,000 -540 Descending Denver Center
03:25PM 39.1228 -104.5325 286° West 344 396 15,000 -420 Level Denver Center
03:26PM 39.1517 -104.6647 286° West 338 389 14,200 -1,080 Descending Denver Center
03:27PM 39.1833 -104.7783 290° West 338 389 12,900 -1,320 Descending Denver Center
03:28PM 39.2394 -104.8533 314° West 305 351 11,600 -1,080 Descending Denver Center
03:29PM 39.3125 -104.9033 332° Northwest 300 345 10,700 -840 Descending Denver Center
03:30PM 39.3839 -104.9544 331° Northwest 278 320 10,000 -660 Descending Denver Center
03:31PM 39.4464 -104.9978 332° Northwest 260 299 9,400 -540 Descending Denver Center
03:32PM 39.5108 -105.0250 342° North 250 288 9,000 -240 Descending Denver Center
03:33PM 39.5778 -105.0236 North 241 277 9,000  Level Denver Center
03:34PM 39.6511 -105.0183 North 244 281 9,000  Level Denver Center
03:35PM 39.7161 -105.0083 North 237 273 9,000 -900 Level Denver Center
03:36PM 39.7819 -104.9878 13° North 241 277 7,200 -1,020 Descending Denver Center
03:37PM 39.8436 -105.0031 349° North 211 243 7,000 -360 Descending Denver Center
03:38PM 39.8750 -105.0517 310° West 179 206 6,500 -720 Descending Denver Center
03:39PM 39.8983 -105.0964 304° West 151 174 5,600 -900 Descending Denver Center